createdAt,value
2023-03-27T00:01:03.449Z,6.00
2023-03-27T00:04:01.325Z,5.90
2023-03-27T00:07:00.159Z,5.90
2023-03-27T00:09:58.036Z,5.90
2023-03-27T00:12:56.531Z,5.80
2023-03-27T00:15:56.082Z,5.80
2023-03-27T00:18:54.963Z,5.80
2023-03-27T00:21:53.850Z,5.70
2023-03-27T00:24:51.765Z,5.70
2023-03-27T00:27:50.734Z,5.70
2023-03-27T00:30:49.641Z,5.70
2023-03-27T00:33:47.502Z,5.70
2023-03-27T00:36:48.945Z,5.70
2023-03-27T00:39:50.560Z,5.80
2023-03-27T00:42:52.584Z,5.80
2023-03-27T00:45:53.306Z,5.80
2023-03-27T00:48:53.392Z,5.80
2023-03-27T00:51:53.471Z,5.80
2023-03-27T00:54:51.569Z,5.90
2023-03-27T00:57:54.934Z,5.90
2023-03-27T01:00:54.336Z,5.90
2023-03-27T01:03:54.564Z,5.90
2023-03-27T01:06:54.969Z,5.90
2023-03-27T01:09:53.134Z,6.00
2023-03-27T01:13:19.793Z,6.00
2023-03-27T01:16:37.718Z,6.00
2023-03-27T01:20:04.597Z,6.00
2023-03-27T01:23:35.306Z,6.00
2023-03-27T01:26:58.310Z,6.00
2023-03-27T01:30:16.668Z,6.00
2023-03-27T01:33:42.973Z,6.10
2023-03-27T01:37:13.972Z,6.10
2023-03-27T01:40:20.730Z,6.30
2023-03-27T01:43:27.762Z,6.30
2023-03-27T01:46:37.194Z,6.40
2023-03-27T01:49:42.544Z,6.40
2023-03-27T01:52:44.664Z,6.50
2023-03-27T01:55:50.944Z,6.60
2023-03-27T01:58:50.763Z,6.80
2023-03-27T02:01:56.907Z,6.90
2023-03-27T02:05:04.533Z,7.00
2023-03-27T02:08:11.062Z,7.20
2023-03-27T02:11:09.172Z,7.30
2023-03-27T02:14:13.180Z,7.40
2023-03-27T02:17:14.776Z,7.50
2023-03-27T02:20:16.796Z,7.60
2023-03-27T02:23:15.033Z,7.70
2023-03-27T02:29:40.526Z,7.90
2023-03-27T02:32:58.820Z,8.10
2023-03-27T02:36:11.041Z,8.20
2023-03-27T02:39:19.457Z,8.20
2023-03-27T02:42:27.672Z,8.40
2023-03-27T02:45:32.182Z,8.50
2023-03-27T02:48:40.934Z,8.60
2023-03-27T02:51:45.646Z,8.70
2023-03-27T02:54:51.706Z,8.70
2023-03-27T02:57:57.049Z,8.90
2023-03-27T03:00:55.888Z,9.00
2023-03-27T03:04:01.151Z,9.10
2023-03-27T03:06:59.737Z,9.10
2023-03-27T03:09:57.542Z,9.30
2023-03-27T03:12:55.707Z,9.30
2023-03-27T03:15:53.499Z,9.40
2023-03-27T03:18:51.695Z,9.50
2023-03-27T03:21:50.173Z,9.60
2023-03-27T03:24:48.204Z,9.70
2023-03-27T03:27:46.385Z,9.80
2023-03-27T03:30:47.607Z,9.90
2023-03-27T03:33:45.557Z,10.00
2023-03-27T03:36:45.464Z,10.00
2023-03-27T03:39:43.628Z,10.10
2023-03-27T03:42:51.407Z,10.20
2023-03-27T03:45:49.980Z,10.20
2023-03-27T03:48:48.057Z,10.30
2023-03-27T03:51:46.547Z,10.30
2023-03-27T03:54:46.712Z,10.40
2023-03-27T03:57:48.104Z,10.40
2023-03-27T04:00:47.783Z,10.50
2023-03-27T04:03:45.750Z,10.50
2023-03-27T04:06:46.241Z,10.60
2023-03-27T04:09:44.079Z,10.60
2023-03-27T04:12:42.654Z,10.40
2023-03-27T04:15:40.712Z,10.30
2023-03-27T04:18:41.851Z,10.20
2023-03-27T04:21:40.031Z,10.10
2023-03-27T04:24:37.990Z,10.20
2023-03-27T04:27:36.268Z,10.20
2023-03-27T04:30:34.217Z,10.30
2023-03-27T04:33:32.096Z,10.20
2023-03-27T04:36:31.255Z,10.30
2023-03-27T04:39:29.736Z,10.20
2023-03-27T04:42:27.741Z,10.10
2023-03-27T04:45:26.341Z,10.00
2023-03-27T04:48:24.285Z,10.30
2023-03-27T04:51:22.174Z,10.40
2023-03-27T04:54:20.105Z,10.40
2023-03-27T04:57:22.982Z,10.50
2023-03-27T05:00:24.250Z,10.80
2023-03-27T05:03:24.348Z,10.60
2023-03-27T05:06:22.524Z,10.70
2023-03-27T05:09:21.041Z,10.70
2023-03-27T05:12:19.103Z,10.70
2023-03-27T05:15:18.465Z,10.80
2023-03-27T05:18:16.686Z,10.70
2023-03-27T05:21:14.512Z,10.90
2023-03-27T05:24:12.713Z,11.10
2023-03-27T05:27:10.826Z,11.30
2023-03-27T05:30:09.366Z,11.40
2023-03-27T05:33:08.418Z,11.50
2023-03-27T05:36:06.878Z,11.60
2023-03-27T05:39:05.169Z,11.30
2023-03-27T05:42:04.009Z,11.30
2023-03-27T05:45:01.844Z,11.40
2023-03-27T05:48:01.842Z,11.50
2023-03-27T05:50:59.792Z,11.50
2023-03-27T05:53:57.821Z,11.60
2023-03-27T05:56:55.811Z,11.70
2023-03-27T05:59:54.605Z,11.90
2023-03-27T06:02:57.553Z,12.00
2023-03-27T06:05:55.500Z,12.10
2023-03-27T06:08:53.881Z,11.80
2023-03-27T06:11:51.845Z,11.90
2023-03-27T06:14:49.654Z,12.00
2023-03-27T06:17:48.742Z,12.10
2023-03-27T06:20:46.650Z,12.40
2023-03-27T06:23:44.778Z,12.30
2023-03-27T06:26:42.604Z,12.20
2023-03-27T06:29:41.151Z,12.10
2023-03-27T06:32:44.885Z,12.20
2023-03-27T06:35:53.124Z,12.40
2023-03-27T06:38:52.419Z,12.50
2023-03-27T06:41:50.339Z,12.60
2023-03-27T06:44:48.133Z,12.50
2023-03-27T06:48:17.914Z,12.50
2023-03-27T06:51:23.158Z,12.50
2023-03-27T06:54:21.359Z,12.60
2023-03-27T06:57:19.144Z,12.70
2023-03-27T07:00:19.880Z,12.70
2023-03-27T07:03:18.981Z,12.80
2023-03-27T07:06:16.992Z,12.80
2023-03-27T07:09:15.948Z,12.80
2023-03-27T07:12:14.016Z,12.90
2023-03-27T07:15:12.116Z,12.80
2023-03-27T07:18:12.119Z,12.70
2023-03-27T07:21:10.287Z,12.90
2023-03-27T07:24:08.473Z,12.80
2023-03-27T07:27:06.422Z,13.20
2023-03-27T07:30:05.293Z,13.40
2023-03-27T07:33:03.863Z,13.50
2023-03-27T07:36:07.077Z,13.40
2023-03-27T07:39:05.026Z,13.20
2023-03-27T07:42:03.096Z,13.10
2023-03-27T07:45:03.930Z,13.00
2023-03-27T07:48:07.449Z,12.90
2023-03-27T07:54:07.326Z,12.90
2023-03-27T07:57:05.837Z,13.10
2023-03-27T08:00:04.722Z,13.10
2023-03-27T08:03:08.136Z,13.30
2023-03-27T08:06:08.197Z,13.40
2023-03-27T08:09:05.999Z,13.50
2023-03-27T08:12:04.448Z,13.70
2023-03-27T08:15:03.222Z,13.60
2023-03-27T08:18:01.235Z,13.70
2023-03-27T08:20:59.759Z,13.60
2023-03-27T08:23:59.276Z,13.70
2023-03-27T08:26:58.252Z,13.60
2023-03-27T08:29:56.264Z,13.70
2023-03-27T08:32:54.244Z,13.80
2023-03-27T08:35:52.792Z,13.70
2023-03-27T08:38:51.326Z,13.80
2023-03-27T08:41:55.797Z,13.70
2023-03-27T08:44:55.926Z,13.80
2023-03-27T08:48:01.438Z,13.80
2023-03-27T08:51:07.560Z,13.80
2023-03-27T08:54:23.757Z,13.90
2023-03-27T08:57:24.604Z,14.00
2023-03-27T09:00:27.784Z,14.00
2023-03-27T09:03:36.494Z,13.70
2023-03-27T09:06:45.565Z,13.80
2023-03-27T09:09:56.312Z,14.00
2023-03-27T09:13:05.412Z,13.90
2023-03-27T09:16:22.087Z,13.90
2023-03-27T09:19:32.416Z,14.00
2023-03-27T09:22:37.666Z,14.00
2023-03-27T09:25:40.254Z,14.00
2023-03-27T09:28:51.349Z,14.10
2023-03-27T09:31:51.713Z,14.10
2023-03-27T09:34:50.038Z,14.10
2023-03-27T09:37:51.273Z,14.10
2023-03-27T09:41:04.944Z,14.30
2023-03-27T09:44:26.399Z,14.10
2023-03-27T09:47:33.478Z,13.90
2023-03-27T09:50:49.874Z,14.00
2023-03-27T09:54:04.206Z,13.90
2023-03-27T09:57:13.244Z,14.00
2023-03-27T10:00:32.192Z,13.90
2023-03-27T10:03:39.497Z,13.90
2023-03-27T10:06:43.835Z,13.90
2023-03-27T10:09:41.787Z,14.00
2023-03-27T10:12:40.779Z,13.90
2023-03-27T10:15:41.004Z,14.10
2023-03-27T10:18:44.008Z,14.10
2023-03-27T10:21:44.369Z,14.20
2023-03-27T10:24:44.159Z,14.00
2023-03-27T10:27:44.474Z,14.10
2023-03-27T10:30:43.140Z,13.90
2023-03-27T10:33:42.357Z,14.00
2023-03-27T10:36:41.063Z,13.90
2023-03-27T10:39:39.153Z,13.90
2023-03-27T10:42:38.684Z,13.90
2023-03-27T10:45:48.000Z,13.90
2023-03-27T10:49:06.429Z,14.00
2023-03-27T10:52:28.624Z,14.00
2023-03-27T10:55:44.995Z,14.10
2023-03-27T10:59:00.680Z,14.10
2023-03-27T11:02:06.440Z,14.10
2023-03-27T11:05:11.062Z,14.00
2023-03-27T11:08:14.085Z,14.00
2023-03-27T11:11:20.639Z,13.90
2023-03-27T11:14:23.394Z,13.80
2023-03-27T11:17:29.320Z,13.70
2023-03-27T11:20:34.051Z,13.60
2023-03-27T11:23:48.608Z,13.50
2023-03-27T11:26:54.512Z,13.50
2023-03-27T11:30:19.164Z,13.50
2023-03-27T11:33:41.321Z,13.70
2023-03-27T11:36:49.047Z,13.50
2023-03-27T11:40:05.628Z,13.40
2023-03-27T11:43:04.725Z,13.30
2023-03-27T11:46:33.386Z,13.30
2023-03-27T11:50:06.561Z,13.20
2023-03-27T11:53:25.112Z,13.20
2023-03-27T11:56:44.332Z,13.20
2023-03-27T12:00:06.711Z,13.10
2023-03-27T12:03:14.560Z,13.00
2023-03-27T12:06:43.157Z,12.90
2023-03-27T12:10:05.608Z,12.90
2023-03-27T12:13:40.643Z,12.90
2023-03-27T12:17:00.998Z,13.00
2023-03-27T12:20:23.209Z,12.90
2023-03-27T12:23:56.724Z,12.70
2023-03-27T12:27:20.156Z,12.60
2023-03-27T12:30:26.606Z,12.60
2023-03-27T12:33:38.188Z,12.70
2023-03-27T12:36:40.821Z,12.60
2023-03-27T12:39:49.286Z,12.50
2023-03-27T12:42:54.948Z,12.30
2023-03-27T12:46:14.683Z,12.30
2023-03-27T12:49:44.409Z,12.20
2023-03-27T12:52:46.636Z,12.20
2023-03-27T12:55:45.528Z,12.10
2023-03-27T12:58:45.566Z,12.00
2023-03-27T13:02:02.560Z,12.10
2023-03-27T13:05:27.387Z,12.00
2023-03-27T13:09:00.151Z,11.90
2023-03-27T13:12:26.945Z,11.80
2023-03-27T13:15:37.769Z,11.70
2023-03-27T13:18:51.718Z,11.70
2023-03-27T13:22:18.136Z,11.60
2023-03-27T13:25:33.202Z,11.50
2023-03-27T13:28:35.267Z,11.50
2023-03-27T13:31:57.368Z,11.50
2023-03-27T13:35:30.558Z,11.40
2023-03-27T13:39:08.686Z,11.30
2023-03-27T13:42:13.679Z,11.20
2023-03-27T13:45:26.218Z,11.10
2023-03-27T13:48:59.947Z,11.00
2023-03-27T13:52:22.108Z,11.00
2023-03-27T13:55:44.588Z,10.90
2023-03-27T13:58:59.451Z,10.80
2023-03-27T14:02:31.439Z,10.70
2023-03-27T14:05:36.465Z,10.60
2023-03-27T14:08:59.293Z,10.50
2023-03-27T14:12:17.484Z,10.30
2023-03-27T14:15:37.703Z,10.20
2023-03-27T14:19:04.165Z,10.00
2023-03-27T14:22:05.917Z,9.90
2023-03-27T14:25:10.691Z,9.70
2023-03-27T14:28:09.811Z,9.60
2023-03-27T14:31:08.969Z,9.60
2023-03-27T14:34:23.070Z,9.50
2023-03-27T14:37:31.663Z,9.40
2023-03-27T14:40:33.102Z,9.30
2023-03-27T14:43:32.324Z,9.10
2023-03-27T14:46:30.915Z,9.10
2023-03-27T14:49:36.454Z,9.00
2023-03-27T14:52:36.013Z,8.90
2023-03-27T14:55:37.001Z,8.90
2023-03-27T14:58:35.126Z,8.80
2023-03-27T15:01:35.697Z,8.70
2023-03-27T15:04:35.605Z,8.60
2023-03-27T15:07:36.300Z,8.60
2023-03-27T15:10:34.826Z,8.50
2023-03-27T15:13:36.979Z,8.40
2023-03-27T15:16:36.411Z,8.30
2023-03-27T15:19:43.795Z,8.20
2023-03-27T15:22:48.073Z,8.20
2023-03-27T15:25:56.823Z,8.20
2023-03-27T15:29:18.694Z,8.20
2023-03-27T15:32:22.586Z,8.10
2023-03-27T15:35:30.663Z,8.00
2023-03-27T15:38:32.371Z,7.90
2023-03-27T15:41:41.183Z,7.90
2023-03-27T15:44:40.630Z,7.80
2023-03-27T15:47:38.700Z,7.80
2023-03-27T15:50:37.697Z,7.70
2023-03-27T15:53:48.378Z,7.80
2023-03-27T15:56:46.258Z,7.80
2023-03-27T15:59:52.254Z,7.80
2023-03-27T16:02:51.651Z,7.70
2023-03-27T16:05:52.057Z,7.60
2023-03-27T16:08:52.080Z,7.60
2023-03-27T16:11:51.581Z,7.60
2023-03-27T16:14:54.611Z,7.60
2023-03-27T16:17:52.795Z,7.50
2023-03-27T16:20:50.726Z,7.50
2023-03-27T16:23:48.760Z,7.40
2023-03-27T16:26:46.719Z,7.50
2023-03-27T16:29:44.711Z,7.50
2023-03-27T16:32:42.613Z,7.50
2023-03-27T16:35:40.708Z,7.50
2023-03-27T16:38:41.279Z,7.40
2023-03-27T16:41:39.201Z,7.40
2023-03-27T16:44:37.206Z,7.30
2023-03-27T16:47:35.213Z,7.30
2023-03-27T16:50:33.109Z,7.20
2023-03-27T16:53:31.165Z,7.10
2023-03-27T16:56:28.968Z,7.10
2023-03-27T16:59:27.171Z,7.00
2023-03-27T17:02:26.792Z,7.00
2023-03-27T17:05:25.387Z,7.00
2023-03-27T17:08:23.224Z,6.90
2023-03-27T17:11:21.472Z,6.90
2023-03-27T17:14:19.324Z,6.80
2023-03-27T17:17:17.493Z,6.80
2023-03-27T17:20:15.439Z,6.80
2023-03-27T17:23:14.186Z,6.70
2023-03-27T17:26:16.049Z,6.70
2023-03-27T17:29:14.122Z,6.70
2023-03-27T17:32:12.174Z,6.70
2023-03-27T17:35:10.912Z,6.60
2023-03-27T17:38:09.117Z,6.60
2023-03-27T17:41:08.059Z,6.60
2023-03-27T17:44:07.510Z,6.60
2023-03-27T17:47:06.908Z,6.60
2023-03-27T17:50:05.707Z,6.50
2023-03-27T17:53:03.611Z,6.50
2023-03-27T17:56:01.405Z,6.50
2023-03-27T17:58:59.480Z,6.50
2023-03-27T18:01:57.828Z,6.40
2023-03-27T18:04:56.060Z,6.40
2023-03-27T18:07:54.047Z,6.40
2023-03-27T18:10:52.146Z,6.40
2023-03-27T18:13:53.593Z,6.40
2023-03-27T18:16:51.608Z,6.40
2023-03-27T18:19:49.522Z,6.40
2023-03-27T18:22:47.880Z,6.30
2023-03-27T18:25:45.784Z,6.30
2023-03-27T18:28:43.985Z,6.30
2023-03-27T18:31:43.502Z,6.30
2023-03-27T18:34:42.026Z,6.40
2023-03-27T18:37:40.545Z,6.40
2023-03-27T18:40:38.532Z,6.30
2023-03-27T18:43:36.760Z,6.30
2023-03-27T18:46:35.342Z,6.30
2023-03-27T18:49:33.247Z,6.30
2023-03-27T18:52:31.323Z,6.30
2023-03-27T18:55:29.426Z,6.30
2023-03-27T18:58:28.577Z,6.20
2023-03-27T19:01:27.362Z,6.20
2023-03-27T19:04:26.024Z,6.20
2023-03-27T19:07:23.870Z,6.10
2023-03-27T19:10:21.833Z,6.10
2023-03-27T19:13:19.633Z,6.10
2023-03-27T19:16:17.596Z,6.00
2023-03-27T19:19:15.796Z,6.00
2023-03-27T19:22:14.267Z,6.00
2023-03-27T19:25:14.072Z,5.90
2023-03-27T19:28:11.996Z,6.00
2023-03-27T19:31:12.315Z,6.00
2023-03-27T19:34:10.295Z,6.00
2023-03-27T19:37:08.086Z,6.00
2023-03-27T19:40:06.652Z,5.90
2023-03-27T19:43:04.462Z,5.80
2023-03-27T19:46:14.935Z,5.90
2023-03-27T19:49:16.244Z,5.80
2023-03-27T19:52:17.337Z,5.80
2023-03-27T19:55:25.849Z,5.80
2023-03-27T19:58:23.858Z,5.80
2023-03-27T20:01:22.176Z,5.80
2023-03-27T20:04:20.657Z,5.80
2023-03-27T20:07:18.472Z,5.80
2023-03-27T20:10:16.752Z,5.80
2023-03-27T20:13:16.550Z,5.80
2023-03-27T20:16:15.087Z,5.80
2023-03-27T20:19:14.783Z,5.80
2023-03-27T20:22:12.709Z,5.70
2023-03-27T20:25:10.534Z,5.60
2023-03-27T20:28:08.561Z,5.60
2023-03-27T20:31:07.276Z,5.60
2023-03-27T20:34:07.020Z,5.50
2023-03-27T20:37:05.053Z,5.50
2023-03-27T20:40:07.756Z,5.40
2023-03-27T20:43:06.416Z,5.30
2023-03-27T20:46:05.411Z,5.30
2023-03-27T20:49:04.009Z,5.20
2023-03-27T20:52:04.359Z,5.30
2023-03-27T20:55:02.440Z,5.20
2023-03-27T20:58:00.369Z,5.30
2023-03-27T21:00:59.873Z,5.20
2023-03-27T21:03:58.884Z,5.20
2023-03-27T21:06:56.986Z,5.10
2023-03-27T21:09:54.909Z,5.10
2023-03-27T21:12:54.664Z,5.10
2023-03-27T21:15:52.617Z,5.10
2023-03-27T21:18:50.411Z,5.10
2023-03-27T21:21:48.607Z,5.20
2023-03-27T21:24:46.402Z,5.20
2023-03-27T21:27:44.808Z,5.20
2023-03-27T21:30:46.896Z,5.20
2023-03-27T21:33:46.611Z,5.20
2023-03-27T21:36:44.494Z,5.20
2023-03-27T21:39:42.442Z,5.30
2023-03-27T21:42:40.329Z,5.20
2023-03-27T21:45:38.479Z,5.20
2023-03-27T21:48:36.520Z,5.20
2023-03-27T21:51:34.477Z,5.20
2023-03-27T21:54:32.285Z,5.30
2023-03-27T21:57:30.246Z,5.30
2023-03-27T22:00:28.270Z,5.20
2023-03-27T22:03:42.033Z,5.30
2023-03-27T22:06:39.886Z,5.20
2023-03-27T22:09:37.801Z,5.20
2023-03-27T22:12:37.328Z,5.20
2023-03-27T22:15:35.510Z,5.20
2023-03-27T22:18:33.344Z,5.20
2023-03-27T22:21:31.719Z,5.20
2023-03-27T22:24:29.982Z,5.20
2023-03-27T22:27:28.003Z,5.20
2023-03-27T22:30:26.235Z,5.10
2023-03-27T22:33:24.237Z,5.10
2023-03-27T22:36:22.512Z,5.10
2023-03-27T22:39:20.445Z,5.10
2023-03-27T22:42:18.541Z,5.10
2023-03-27T22:45:16.475Z,5.10
2023-03-27T22:48:14.302Z,5.10
2023-03-27T22:51:13.816Z,5.10
2023-03-27T22:54:11.685Z,5.20
2023-03-27T22:57:10.231Z,5.20
2023-03-27T23:00:08.669Z,5.30
2023-03-27T23:03:06.691Z,5.20
2023-03-27T23:06:04.908Z,5.20
2023-03-27T23:09:02.876Z,5.10
2023-03-27T23:12:00.737Z,5.10
2023-03-27T23:14:58.694Z,5.10
2023-03-27T23:17:56.833Z,5.10
2023-03-27T23:20:59.882Z,5.20
2023-03-27T23:23:57.766Z,5.20
2023-03-27T23:26:55.703Z,5.20
2023-03-27T23:29:53.494Z,5.20
2023-03-27T23:32:51.469Z,5.10
2023-03-27T23:35:49.470Z,5.00
2023-03-27T23:38:47.673Z,5.00
2023-03-27T23:41:45.461Z,5.00
2023-03-27T23:44:43.463Z,5.00
2023-03-27T23:47:41.381Z,5.00
2023-03-27T23:50:39.347Z,5.00
2023-03-27T23:53:38.316Z,5.00
2023-03-27T23:56:36.316Z,5.10
2023-03-27T23:59:37.964Z,5.10
